sensor_id;sensor_type;location;lat;lon;timestamp;P1;durP1;ratioP1;P2;durP2;ratioP2
19897;SDS011;10111;50.814;4.572;2022-08-07T00:01:40;2.20;;;1.60;;
19897;SDS011;10111;50.814;4.572;2022-08-07T00:04:06;1.30;;;1.20;;
19897;SDS011;10111;50.814;4.572;2022-08-07T00:06:32;1.60;;;1.50;;
19897;SDS011;10111;50.814;4.572;2022-08-07T00:08:58;2.07;;;1.73;;
19897;SDS011;10111;50.814;4.572;2022-08-07T00:11:31;1.40;;;1.30;;
19897;SDS011;10111;50.814;4.572;2022-08-07T00:13:57;1.73;;;1.63;;
19897;SDS011;10111;50.814;4.572;2022-08-07T00:16:22;2.97;;;1.60;;
19897;SDS011;10111;50.814;4.572;2022-08-07T00:18:48;2.70;;;1.87;;
19897;SDS011;10111;50.814;4.572;2022-08-07T00:21:13;1.30;;;1.20;;
19897;SDS011;10111;50.814;4.572;2022-08-07T00:23:39;3.10;;;1.93;;
19897;SDS011;10111;50.814;4.572;2022-08-07T00:26:06;2.10;;;1.30;;
19897;SDS011;10111;50.814;4.572;2022-08-07T00:28:34;3.17;;;2.17;;
19897;SDS011;10111;50.814;4.572;2022-08-07T00:31:00;3.37;;;1.40;;
19897;SDS011;10111;50.814;4.572;2022-08-07T00:33:28;2.10;;;1.80;;
19897;SDS011;10111;50.814;4.572;2022-08-07T00:35:54;2.07;;;1.70;;
19897;SDS011;10111;50.814;4.572;2022-08-07T00:38:20;2.37;;;1.60;;
19897;SDS011;10111;50.814;4.572;2022-08-07T00:40:46;2.73;;;1.90;;
19897;SDS011;10111;50.814;4.572;2022-08-07T00:43:12;1.80;;;1.47;;
19897;SDS011;10111;50.814;4.572;2022-08-07T00:45:39;1.47;;;1.37;;
19897;SDS011;10111;50.814;4.572;2022-08-07T00:48:05;2.10;;;1.30;;
19897;SDS011;10111;50.814;4.572;2022-08-07T00:50:32;3.83;;;1.70;;
19897;SDS011;10111;50.814;4.572;2022-08-07T00:52:58;2.00;;;1.80;;
19897;SDS011;10111;50.814;4.572;2022-08-07T00:55:24;2.20;;;1.97;;
19897;SDS011;10111;50.814;4.572;2022-08-07T00:57:49;1.77;;;1.60;;
19897;SDS011;10111;50.814;4.572;2022-08-07T01:00:16;1.60;;;1.50;;
19897;SDS011;10111;50.814;4.572;2022-08-07T01:02:43;4.20;;;1.83;;
19897;SDS011;10111;50.814;4.572;2022-08-07T01:05:09;3.17;;;2.07;;
19897;SDS011;10111;50.814;4.572;2022-08-07T01:07:35;2.00;;;1.80;;
19897;SDS011;10111;50.814;4.572;2022-08-07T01:10:01;3.03;;;1.73;;
19897;SDS011;10111;50.814;4.572;2022-08-07T01:12:27;3.40;;;2.37;;
19897;SDS011;10111;50.814;4.572;2022-08-07T01:14:54;2.13;;;1.73;;
19897;SDS011;10111;50.814;4.572;2022-08-07T01:17:22;1.83;;;1.47;;
19897;SDS011;10111;50.814;4.572;2022-08-07T01:19:48;3.37;;;2.20;;
19897;SDS011;10111;50.814;4.572;2022-08-07T01:22:17;3.67;;;1.83;;
19897;SDS011;10111;50.814;4.572;2022-08-07T01:24:43;1.87;;;1.70;;
19897;SDS011;10111;50.814;4.572;2022-08-07T01:27:10;2.83;;;1.73;;
19897;SDS011;10111;50.814;4.572;2022-08-07T01:29:38;2.30;;;2.10;;
19897;SDS011;10111;50.814;4.572;2022-08-07T01:32:04;2.13;;;1.93;;
19897;SDS011;10111;50.814;4.572;2022-08-07T01:34:38;2.07;;;1.90;;
19897;SDS011;10111;50.814;4.572;2022-08-07T01:37:08;4.10;;;2.03;;
19897;SDS011;10111;50.814;4.572;2022-08-07T01:39:36;2.87;;;2.33;;
19897;SDS011;10111;50.814;4.572;2022-08-07T01:42:01;2.53;;;2.30;;
19897;SDS011;10111;50.814;4.572;2022-08-07T01:44:28;2.13;;;1.73;;
19897;SDS011;10111;50.814;4.572;2022-08-07T01:46:54;2.73;;;2.53;;
19897;SDS011;10111;50.814;4.572;2022-08-07T01:49:20;2.13;;;1.93;;
19897;SDS011;10111;50.814;4.572;2022-08-07T01:51:45;2.70;;;2.23;;
19897;SDS011;10111;50.814;4.572;2022-08-07T01:54:13;2.87;;;2.33;;
19897;SDS011;10111;50.814;4.572;2022-08-07T01:56:50;2.83;;;2.40;;
19897;SDS011;10111;50.814;4.572;2022-08-07T01:59:25;3.43;;;2.10;;
19897;SDS011;10111;50.814;4.572;2022-08-07T02:01:55;2.00;;;1.90;;
19897;SDS011;10111;50.814;4.572;2022-08-07T02:04:46;2.40;;;2.20;;
19897;SDS011;10111;50.814;4.572;2022-08-07T02:07:16;2.80;;;2.50;;
19897;SDS011;10111;50.814;4.572;2022-08-07T02:09:46;2.60;;;2.40;;
19897;SDS011;10111;50.814;4.572;2022-08-07T02:12:15;2.80;;;2.40;;
19897;SDS011;10111;50.814;4.572;2022-08-07T02:14:49;3.40;;;2.63;;
19897;SDS011;10111;50.814;4.572;2022-08-07T02:17:17;5.53;;;3.03;;
19897;SDS011;10111;50.814;4.572;2022-08-07T02:19:45;3.90;;;2.17;;
19897;SDS011;10111;50.814;4.572;2022-08-07T02:22:13;3.07;;;2.60;;
19897;SDS011;10111;50.814;4.572;2022-08-07T02:24:43;10.63;;;3.60;;
19897;SDS011;10111;50.814;4.572;2022-08-07T02:27:11;5.53;;;2.90;;
19897;SDS011;10111;50.814;4.572;2022-08-07T02:29:39;3.43;;;2.87;;
19897;SDS011;10111;50.814;4.572;2022-08-07T02:32:06;3.93;;;2.67;;
19897;SDS011;10111;50.814;4.572;2022-08-07T02:34:34;3.00;;;2.57;;
19897;SDS011;10111;50.814;4.572;2022-08-07T02:37:02;3.80;;;3.27;;
19897;SDS011;10111;50.814;4.572;2022-08-07T02:39:32;3.87;;;3.33;;
19897;SDS011;10111;50.814;4.572;2022-08-07T02:42:00;3.53;;;2.83;;
19897;SDS011;10111;50.814;4.572;2022-08-07T02:44:27;3.27;;;2.97;;
19897;SDS011;10111;50.814;4.572;2022-08-07T02:46:55;4.47;;;3.23;;
19897;SDS011;10111;50.814;4.572;2022-08-07T02:49:22;3.00;;;2.73;;
19897;SDS011;10111;50.814;4.572;2022-08-07T02:51:48;3.80;;;3.10;;
19897;SDS011;10111;50.814;4.572;2022-08-07T02:54:16;3.87;;;3.20;;
19897;SDS011;10111;50.814;4.572;2022-08-07T02:56:45;4.53;;;2.93;;
19897;SDS011;10111;50.814;4.572;2022-08-07T02:59:13;3.90;;;2.90;;
19897;SDS011;10111;50.814;4.572;2022-08-07T03:01:42;2.50;;;2.30;;
19897;SDS011;10111;50.814;4.572;2022-08-07T03:04:09;5.20;;;3.10;;
19897;SDS011;10111;50.814;4.572;2022-08-07T03:06:37;4.20;;;2.97;;
19897;SDS011;10111;50.814;4.572;2022-08-07T03:09:04;3.43;;;3.00;;
19897;SDS011;10111;50.814;4.572;2022-08-07T03:11:32;7.93;;;3.50;;
19897;SDS011;10111;50.814;4.572;2022-08-07T03:13:59;7.40;;;3.53;;
19897;SDS011;10111;50.814;4.572;2022-08-07T03:16:28;3.60;;;3.23;;
19897;SDS011;10111;50.814;4.572;2022-08-07T03:18:55;4.20;;;3.50;;
19897;SDS011;10111;50.814;4.572;2022-08-07T03:21:21;6.53;;;4.00;;
19897;SDS011;10111;50.814;4.572;2022-08-07T03:23:49;3.30;;;3.00;;
19897;SDS011;10111;50.814;4.572;2022-08-07T03:26:18;5.17;;;3.50;;
19897;SDS011;10111;50.814;4.572;2022-08-07T03:28:47;4.63;;;3.40;;
19897;SDS011;10111;50.814;4.572;2022-08-07T03:31:13;3.77;;;3.20;;
19897;SDS011;10111;50.814;4.572;2022-08-07T03:33:42;5.07;;;2.93;;
19897;SDS011;10111;50.814;4.572;2022-08-07T03:36:10;4.60;;;3.53;;
19897;SDS011;10111;50.814;4.572;2022-08-07T03:38:39;4.40;;;3.10;;
19897;SDS011;10111;50.814;4.572;2022-08-07T03:41:07;3.70;;;3.13;;
19897;SDS011;10111;50.814;4.572;2022-08-07T03:43:34;4.30;;;3.53;;
19897;SDS011;10111;50.814;4.572;2022-08-07T03:46:01;6.27;;;3.10;;
19897;SDS011;10111;50.814;4.572;2022-08-07T03:48:28;5.23;;;3.60;;
19897;SDS011;10111;50.814;4.572;2022-08-07T03:50:59;3.87;;;3.37;;
19897;SDS011;10111;50.814;4.572;2022-08-07T03:53:26;5.07;;;3.73;;
19897;SDS011;10111;50.814;4.572;2022-08-07T03:55:52;4.63;;;3.67;;
19897;SDS011;10111;50.814;4.572;2022-08-07T03:58:20;5.07;;;3.13;;
19897;SDS011;10111;50.814;4.572;2022-08-07T04:00:51;6.47;;;3.70;;
19897;SDS011;10111;50.814;4.572;2022-08-07T04:03:18;3.80;;;2.90;;
19897;SDS011;10111;50.814;4.572;2022-08-07T04:05:44;4.83;;;4.33;;
19897;SDS011;10111;50.814;4.572;2022-08-07T04:08:11;5.50;;;3.13;;
19897;SDS011;10111;50.814;4.572;2022-08-07T04:10:38;6.80;;;3.90;;
19897;SDS011;10111;50.814;4.572;2022-08-07T04:13:05;5.13;;;3.50;;
19897;SDS011;10111;50.814;4.572;2022-08-07T04:15:33;5.77;;;3.20;;
19897;SDS011;10111;50.814;4.572;2022-08-07T04:18:00;4.40;;;3.63;;
19897;SDS011;10111;50.814;4.572;2022-08-07T04:20:26;4.53;;;3.57;;
19897;SDS011;10111;50.814;4.572;2022-08-07T04:22:53;4.17;;;3.50;;
19897;SDS011;10111;50.814;4.572;2022-08-07T04:25:23;6.33;;;3.20;;
19897;SDS011;10111;50.814;4.572;2022-08-07T04:27:50;4.63;;;3.30;;
19897;SDS011;10111;50.814;4.572;2022-08-07T04:30:16;4.50;;;3.37;;
19897;SDS011;10111;50.814;4.572;2022-08-07T04:32:42;3.77;;;2.97;;
19897;SDS011;10111;50.814;4.572;2022-08-07T04:35:08;4.90;;;3.70;;
19897;SDS011;10111;50.814;4.572;2022-08-07T04:37:34;4.33;;;3.67;;
19897;SDS011;10111;50.814;4.572;2022-08-07T04:40:01;4.67;;;3.80;;
19897;SDS011;10111;50.814;4.572;2022-08-07T04:42:28;5.13;;;3.37;;
19897;SDS011;10111;50.814;4.572;2022-08-07T04:44:56;4.93;;;3.67;;
19897;SDS011;10111;50.814;4.572;2022-08-07T04:47:49;4.30;;;3.43;;
19897;SDS011;10111;50.814;4.572;2022-08-07T04:50:38;4.57;;;3.73;;
19897;SDS011;10111;50.814;4.572;2022-08-07T04:53:26;4.80;;;3.30;;
19897;SDS011;10111;50.814;4.572;2022-08-07T04:56:08;6.80;;;3.50;;
19897;SDS011;10111;50.814;4.572;2022-08-07T05:01:13;4.40;;;3.53;;
19897;SDS011;10111;50.814;4.572;2022-08-07T05:03:53;4.20;;;3.33;;
19897;SDS011;10111;50.814;4.572;2022-08-07T05:06:45;3.63;;;3.27;;
19897;SDS011;10111;50.814;4.572;2022-08-07T05:12:34;6.17;;;3.63;;
19897;SDS011;10111;50.814;4.572;2022-08-07T05:15:10;5.97;;;4.20;;
19897;SDS011;10111;50.814;4.572;2022-08-07T05:17:43;6.60;;;5.30;;
19897;SDS011;10111;50.814;4.572;2022-08-07T05:20:12;6.30;;;5.67;;
19897;SDS011;10111;50.814;4.572;2022-08-07T05:22:42;7.93;;;6.33;;
19897;SDS011;10111;50.814;4.572;2022-08-07T05:25:11;8.83;;;5.20;;
19897;SDS011;10111;50.814;4.572;2022-08-07T05:27:39;8.87;;;5.70;;
19897;SDS011;10111;50.814;4.572;2022-08-07T05:30:06;8.00;;;5.67;;
19897;SDS011;10111;50.814;4.572;2022-08-07T05:32:33;7.77;;;5.97;;
19897;SDS011;10111;50.814;4.572;2022-08-07T05:35:01;11.47;;;7.30;;
19897;SDS011;10111;50.814;4.572;2022-08-07T05:37:28;7.93;;;5.57;;
19897;SDS011;10111;50.814;4.572;2022-08-07T05:39:55;8.23;;;6.27;;
19897;SDS011;10111;50.814;4.572;2022-08-07T05:42:21;8.73;;;5.53;;
19897;SDS011;10111;50.814;4.572;2022-08-07T05:44:51;9.27;;;6.03;;
19897;SDS011;10111;50.814;4.572;2022-08-07T05:47:18;8.23;;;5.97;;
19897;SDS011;10111;50.814;4.572;2022-08-07T05:49:46;8.97;;;5.93;;
19897;SDS011;10111;50.814;4.572;2022-08-07T05:52:13;10.03;;;6.63;;
19897;SDS011;10111;50.814;4.572;2022-08-07T05:54:39;7.63;;;5.97;;
19897;SDS011;10111;50.814;4.572;2022-08-07T05:57:05;10.37;;;6.30;;
19897;SDS011;10111;50.814;4.572;2022-08-07T05:59:36;8.90;;;5.90;;
19897;SDS011;10111;50.814;4.572;2022-08-07T06:02:04;8.07;;;5.67;;
19897;SDS011;10111;50.814;4.572;2022-08-07T06:04:32;7.23;;;5.47;;
19897;SDS011;10111;50.814;4.572;2022-08-07T06:07:01;7.57;;;5.80;;
19897;SDS011;10111;50.814;4.572;2022-08-07T06:09:30;9.27;;;6.17;;
19897;SDS011;10111;50.814;4.572;2022-08-07T06:11:57;6.73;;;5.47;;
19897;SDS011;10111;50.814;4.572;2022-08-07T06:14:23;9.83;;;6.67;;
19897;SDS011;10111;50.814;4.572;2022-08-07T06:16:49;9.00;;;6.03;;
19897;SDS011;10111;50.814;4.572;2022-08-07T06:19:16;6.73;;;5.03;;
19897;SDS011;10111;50.814;4.572;2022-08-07T06:21:43;10.07;;;6.03;;
19897;SDS011;10111;50.814;4.572;2022-08-07T06:24:10;6.57;;;5.27;;
19897;SDS011;10111;50.814;4.572;2022-08-07T06:26:39;6.70;;;5.00;;
19897;SDS011;10111;50.814;4.572;2022-08-07T06:29:05;5.53;;;4.13;;
19897;SDS011;10111;50.814;4.572;2022-08-07T06:31:31;6.03;;;5.03;;
19897;SDS011;10111;50.814;4.572;2022-08-07T06:33:57;7.00;;;4.63;;
19897;SDS011;10111;50.814;4.572;2022-08-07T06:36:22;6.67;;;5.03;;
19897;SDS011;10111;50.814;4.572;2022-08-07T06:38:51;6.47;;;5.03;;
19897;SDS011;10111;50.814;4.572;2022-08-07T06:41:20;5.67;;;4.00;;
19897;SDS011;10111;50.814;4.572;2022-08-07T06:43:53;6.53;;;3.40;;
19897;SDS011;10111;50.814;4.572;2022-08-07T06:46:20;4.70;;;4.00;;
19897;SDS011;10111;50.814;4.572;2022-08-07T06:48:46;7.10;;;4.77;;
19897;SDS011;10111;50.814;4.572;2022-08-07T06:51:17;6.10;;;3.77;;
19897;SDS011;10111;50.814;4.572;2022-08-07T06:53:49;6.93;;;5.07;;
19897;SDS011;10111;50.814;4.572;2022-08-07T06:56:16;5.23;;;3.93;;
19897;SDS011;10111;50.814;4.572;2022-08-07T06:59:03;5.10;;;4.00;;
19897;SDS011;10111;50.814;4.572;2022-08-07T07:01:34;7.80;;;4.67;;
19897;SDS011;10111;50.814;4.572;2022-08-07T07:04:02;5.00;;;3.67;;
19897;SDS011;10111;50.814;4.572;2022-08-07T07:06:30;4.60;;;3.60;;
19897;SDS011;10111;50.814;4.572;2022-08-07T07:09:14;6.13;;;3.97;;
19897;SDS011;10111;50.814;4.572;2022-08-07T07:11:56;4.83;;;3.40;;
19897;SDS011;10111;50.814;4.572;2022-08-07T07:14:24;5.67;;;3.50;;
19897;SDS011;10111;50.814;4.572;2022-08-07T07:16:53;4.50;;;3.90;;
19897;SDS011;10111;50.814;4.572;2022-08-07T07:19:32;5.93;;;3.77;;
19897;SDS011;10111;50.814;4.572;2022-08-07T07:22:03;5.27;;;3.63;;
19897;SDS011;10111;50.814;4.572;2022-08-07T07:24:29;4.27;;;3.37;;
19897;SDS011;10111;50.814;4.572;2022-08-07T07:26:55;5.50;;;3.70;;
19897;SDS011;10111;50.814;4.572;2022-08-07T07:29:23;6.17;;;3.37;;
19897;SDS011;10111;50.814;4.572;2022-08-07T07:31:52;6.67;;;3.03;;
19897;SDS011;10111;50.814;4.572;2022-08-07T07:34:24;4.20;;;3.43;;
19897;SDS011;10111;50.814;4.572;2022-08-07T07:36:53;5.90;;;4.00;;
19897;SDS011;10111;50.814;4.572;2022-08-07T07:39:21;3.87;;;2.90;;
19897;SDS011;10111;50.814;4.572;2022-08-07T07:41:49;4.23;;;3.50;;
19897;SDS011;10111;50.814;4.572;2022-08-07T07:44:15;6.50;;;3.73;;
19897;SDS011;10111;50.814;4.572;2022-08-07T07:46:44;5.37;;;3.73;;
19897;SDS011;10111;50.814;4.572;2022-08-07T07:49:13;5.17;;;3.13;;
19897;SDS011;10111;50.814;4.572;2022-08-07T07:51:41;5.47;;;2.90;;
19897;SDS011;10111;50.814;4.572;2022-08-07T07:54:08;4.10;;;2.77;;
19897;SDS011;10111;50.814;4.572;2022-08-07T07:56:35;3.67;;;2.70;;
19897;SDS011;10111;50.814;4.572;2022-08-07T07:59:03;5.30;;;3.17;;
19897;SDS011;10111;50.814;4.572;2022-08-07T08:01:30;4.37;;;2.90;;
19897;SDS011;10111;50.814;4.572;2022-08-07T08:03:59;3.63;;;2.83;;
19897;SDS011;10111;50.814;4.572;2022-08-07T08:06:28;3.37;;;3.07;;
19897;SDS011;10111;50.814;4.572;2022-08-07T08:08:56;3.13;;;2.83;;
19897;SDS011;10111;50.814;4.572;2022-08-07T08:11:24;3.37;;;3.00;;
19897;SDS011;10111;50.814;4.572;2022-08-07T08:13:50;6.03;;;3.40;;
19897;SDS011;10111;50.814;4.572;2022-08-07T08:16:16;4.23;;;2.93;;
19897;SDS011;10111;50.814;4.572;2022-08-07T08:18:43;3.37;;;2.90;;
19897;SDS011;10111;50.814;4.572;2022-08-07T08:21:12;4.10;;;2.53;;
19897;SDS011;10111;50.814;4.572;2022-08-07T08:23:58;5.60;;;3.30;;
19897;SDS011;10111;50.814;4.572;2022-08-07T08:26:44;4.40;;;2.90;;
19897;SDS011;10111;50.814;4.572;2022-08-07T08:29:29;4.17;;;3.00;;
19897;SDS011;10111;50.814;4.572;2022-08-07T08:32:23;3.43;;;2.73;;
19897;SDS011;10111;50.814;4.572;2022-08-07T08:34:51;2.63;;;2.23;;
19897;SDS011;10111;50.814;4.572;2022-08-07T08:37:18;2.83;;;2.47;;
19897;SDS011;10111;50.814;4.572;2022-08-07T08:39:45;3.13;;;2.30;;
19897;SDS011;10111;50.814;4.572;2022-08-07T08:42:21;3.27;;;2.53;;
19897;SDS011;10111;50.814;4.572;2022-08-07T08:44:59;2.53;;;1.80;;
19897;SDS011;10111;50.814;4.572;2022-08-07T08:47:38;3.33;;;2.20;;
19897;SDS011;10111;50.814;4.572;2022-08-07T08:52:38;2.70;;;2.27;;
19897;SDS011;10111;50.814;4.572;2022-08-07T08:55:09;3.17;;;2.10;;
19897;SDS011;10111;50.814;4.572;2022-08-07T08:57:44;2.40;;;2.07;;
19897;SDS011;10111;50.814;4.572;2022-08-07T09:00:35;2.53;;;2.00;;
19897;SDS011;10111;50.814;4.572;2022-08-07T09:03:11;3.00;;;2.27;;
19897;SDS011;10111;50.814;4.572;2022-08-07T09:05:58;4.13;;;2.10;;
19897;SDS011;10111;50.814;4.572;2022-08-07T09:11:44;3.77;;;2.00;;
19897;SDS011;10111;50.814;4.572;2022-08-07T09:25:23;3.33;;;2.17;;
19897;SDS011;10111;50.814;4.572;2022-08-07T09:28:03;2.70;;;2.03;;
19897;SDS011;10111;50.814;4.572;2022-08-07T09:45:14;2.50;;;1.80;;
19897;SDS011;10111;50.814;4.572;2022-08-07T09:50:32;1.73;;;1.60;;
19897;SDS011;10111;50.814;4.572;2022-08-07T09:53:20;2.40;;;1.87;;
19897;SDS011;10111;50.814;4.572;2022-08-07T10:15:49;3.23;;;1.87;;
19897;SDS011;10111;50.814;4.572;2022-08-07T10:21:14;2.63;;;1.80;;
19897;SDS011;10111;50.814;4.572;2022-08-07T10:32:50;2.93;;;2.03;;
19897;SDS011;10111;50.814;4.572;2022-08-07T10:35:26;2.80;;;2.13;;
19897;SDS011;10111;50.814;4.572;2022-08-07T10:40:57;4.37;;;1.90;;
19897;SDS011;10111;50.814;4.572;2022-08-07T10:43:52;3.37;;;2.00;;
19897;SDS011;10111;50.814;4.572;2022-08-07T10:46:23;1.53;;;1.43;;
19897;SDS011;10111;50.814;4.572;2022-08-07T10:48:59;2.40;;;1.93;;
19897;SDS011;10111;50.814;4.572;2022-08-07T10:52:08;3.00;;;1.70;;
19897;SDS011;10111;50.814;4.572;2022-08-07T10:55:05;3.00;;;1.67;;
19897;SDS011;10111;50.814;4.572;2022-08-07T11:00:05;2.13;;;1.80;;
19897;SDS011;10111;50.814;4.572;2022-08-07T11:10:46;2.33;;;2.10;;
19897;SDS011;10111;50.814;4.572;2022-08-07T11:16:10;2.00;;;1.50;;
19897;SDS011;10111;50.814;4.572;2022-08-07T11:18:47;4.30;;;1.87;;
19897;SDS011;10111;50.814;4.572;2022-08-07T11:32:00;1.40;;;1.23;;
19897;SDS011;10111;50.814;4.572;2022-08-07T11:40:46;2.13;;;1.73;;
19897;SDS011;10111;50.814;4.572;2022-08-07T11:55:25;2.30;;;1.40;;
19897;SDS011;10111;50.814;4.572;2022-08-07T11:58:16;3.23;;;1.60;;
19897;SDS011;10111;50.814;4.572;2022-08-07T12:00:54;3.73;;;1.80;;
19897;SDS011;10111;50.814;4.572;2022-08-07T12:09:33;2.03;;;1.57;;
19897;SDS011;10111;50.814;4.572;2022-08-07T12:12:09;2.53;;;1.93;;
19897;SDS011;10111;50.814;4.572;2022-08-07T12:14:41;1.90;;;1.80;;
19897;SDS011;10111;50.814;4.572;2022-08-07T12:17:36;1.60;;;1.50;;
19897;SDS011;10111;50.814;4.572;2022-08-07T12:25:24;2.40;;;1.80;;
19897;SDS011;10111;50.814;4.572;2022-08-07T12:28:16;1.23;;;1.07;;
19897;SDS011;10111;50.814;4.572;2022-08-07T12:30:48;1.87;;;1.60;;
19897;SDS011;10111;50.814;4.572;2022-08-07T12:33:18;3.50;;;2.20;;
19897;SDS011;10111;50.814;4.572;2022-08-07T12:35:47;2.87;;;1.50;;
19897;SDS011;10111;50.814;4.572;2022-08-07T12:38:15;2.93;;;1.40;;
19897;SDS011;10111;50.814;4.572;2022-08-07T12:40:42;2.33;;;1.30;;
19897;SDS011;10111;50.814;4.572;2022-08-07T12:43:10;2.00;;;1.90;;
19897;SDS011;10111;50.814;4.572;2022-08-07T12:48:28;1.73;;;1.60;;
19897;SDS011;10111;50.814;4.572;2022-08-07T12:51:11;2.23;;;1.80;;
19897;SDS011;10111;50.814;4.572;2022-08-07T12:53:50;2.13;;;1.40;;
19897;SDS011;10111;50.814;4.572;2022-08-07T12:58:54;4.23;;;1.83;;
19897;SDS011;10111;50.814;4.572;2022-08-07T13:03:54;2.30;;;1.70;;
19897;SDS011;10111;50.814;4.572;2022-08-07T13:15:43;3.40;;;1.63;;
19897;SDS011;10111;50.814;4.572;2022-08-07T13:18:20;3.27;;;1.67;;
19897;SDS011;10111;50.814;4.572;2022-08-07T13:21:06;3.77;;;1.50;;
19897;SDS011;10111;50.814;4.572;2022-08-07T13:23:51;2.50;;;1.83;;
19897;SDS011;10111;50.814;4.572;2022-08-07T13:26:27;1.50;;;1.40;;
19897;SDS011;10111;50.814;4.572;2022-08-07T13:29:10;2.10;;;1.40;;
19897;SDS011;10111;50.814;4.572;2022-08-07T13:31:42;3.30;;;2.10;;
19897;SDS011;10111;50.814;4.572;2022-08-07T13:34:39;3.47;;;1.83;;
19897;SDS011;10111;50.814;4.572;2022-08-07T13:37:30;3.57;;;1.50;;
19897;SDS011;10111;50.814;4.572;2022-08-07T13:42:55;3.90;;;2.17;;
19897;SDS011;10111;50.814;4.572;2022-08-07T13:45:24;1.53;;;1.37;;
19897;SDS011;10111;50.814;4.572;2022-08-07T13:47:51;2.40;;;1.80;;
19897;SDS011;10111;50.814;4.572;2022-08-07T13:50:21;3.03;;;1.33;;
19897;SDS011;10111;50.814;4.572;2022-08-07T13:52:49;4.57;;;1.60;;
19897;SDS011;10111;50.814;4.572;2022-08-07T13:55:17;2.03;;;1.30;;
19897;SDS011;10111;50.814;4.572;2022-08-07T13:57:48;4.87;;;2.53;;
19897;SDS011;10111;50.814;4.572;2022-08-07T14:00:16;1.73;;;1.57;;
19897;SDS011;10111;50.814;4.572;2022-08-07T14:02:43;2.33;;;1.73;;
19897;SDS011;10111;50.814;4.572;2022-08-07T14:05:12;2.33;;;1.50;;
19897;SDS011;10111;50.814;4.572;2022-08-07T14:07:44;1.40;;;1.20;;
19897;SDS011;10111;50.814;4.572;2022-08-07T14:10:11;1.40;;;1.20;;
19897;SDS011;10111;50.814;4.572;2022-08-07T14:12:53;1.43;;;1.27;;
19897;SDS011;10111;50.814;4.572;2022-08-07T14:15:26;1.93;;;1.40;;
19897;SDS011;10111;50.814;4.572;2022-08-07T14:18:01;2.13;;;1.93;;
19897;SDS011;10111;50.814;4.572;2022-08-07T14:20:40;2.10;;;1.57;;
19897;SDS011;10111;50.814;4.572;2022-08-07T14:23:20;2.23;;;1.53;;
19897;SDS011;10111;50.814;4.572;2022-08-07T14:26:00;2.03;;;1.73;;
19897;SDS011;10111;50.814;4.572;2022-08-07T14:28:34;2.67;;;1.80;;
19897;SDS011;10111;50.814;4.572;2022-08-07T14:31:01;2.83;;;1.30;;
19897;SDS011;10111;50.814;4.572;2022-08-07T14:33:30;1.53;;;1.43;;
19897;SDS011;10111;50.814;4.572;2022-08-07T14:35:57;1.73;;;1.60;;
19897;SDS011;10111;50.814;4.572;2022-08-07T14:38:25;1.83;;;1.47;;
19897;SDS011;10111;50.814;4.572;2022-08-07T14:40:54;1.73;;;1.43;;
19897;SDS011;10111;50.814;4.572;2022-08-07T14:43:22;2.83;;;1.33;;
19897;SDS011;10111;50.814;4.572;2022-08-07T14:45:52;1.43;;;1.33;;
19897;SDS011;10111;50.814;4.572;2022-08-07T14:48:20;4.80;;;1.40;;
19897;SDS011;10111;50.814;4.572;2022-08-07T14:50:55;2.57;;;1.10;;
19897;SDS011;10111;50.814;4.572;2022-08-07T14:53:23;2.23;;;1.33;;
19897;SDS011;10111;50.814;4.572;2022-08-07T14:55:51;1.63;;;1.33;;
19897;SDS011;10111;50.814;4.572;2022-08-07T14:58:20;1.80;;;1.60;;
19897;SDS011;10111;50.814;4.572;2022-08-07T15:00:49;2.40;;;1.20;;
19897;SDS011;10111;50.814;4.572;2022-08-07T15:03:16;2.37;;;1.50;;
19897;SDS011;10111;50.814;4.572;2022-08-07T15:05:47;1.50;;;1.40;;
19897;SDS011;10111;50.814;4.572;2022-08-07T15:08:13;3.73;;;1.90;;
19897;SDS011;10111;50.814;4.572;2022-08-07T15:11:14;1.10;;;0.87;;
19897;SDS011;10111;50.814;4.572;2022-08-07T15:16:25;1.83;;;1.60;;
19897;SDS011;10111;50.814;4.572;2022-08-07T15:19:01;1.80;;;1.17;;
19897;SDS011;10111;50.814;4.572;2022-08-07T15:21:33;1.00;;;0.90;;
19897;SDS011;10111;50.814;4.572;2022-08-07T15:24:03;2.33;;;1.40;;
19897;SDS011;10111;50.814;4.572;2022-08-07T15:26:37;1.73;;;1.57;;
19897;SDS011;10111;50.814;4.572;2022-08-07T15:29:07;1.13;;;1.03;;
19897;SDS011;10111;50.814;4.572;2022-08-07T15:31:36;1.57;;;1.20;;
19897;SDS011;10111;50.814;4.572;2022-08-07T15:34:05;1.67;;;1.27;;
19897;SDS011;10111;50.814;4.572;2022-08-07T15:36:32;1.13;;;1.03;;
19897;SDS011;10111;50.814;4.572;2022-08-07T15:39:05;1.57;;;1.13;;
19897;SDS011;10111;50.814;4.572;2022-08-07T15:41:37;2.97;;;1.10;;
19897;SDS011;10111;50.814;4.572;2022-08-07T15:44:20;2.47;;;1.13;;
19897;SDS011;10111;50.814;4.572;2022-08-07T15:46:49;3.23;;;1.60;;
19897;SDS011;10111;50.814;4.572;2022-08-07T15:49:27;1.47;;;1.00;;
19897;SDS011;10111;50.814;4.572;2022-08-07T15:51:54;1.23;;;1.13;;
19897;SDS011;10111;50.814;4.572;2022-08-07T15:54:20;1.80;;;1.20;;
19897;SDS011;10111;50.814;4.572;2022-08-07T15:56:49;0.97;;;0.97;;
19897;SDS011;10111;50.814;4.572;2022-08-07T15:59:16;1.10;;;1.00;;
19897;SDS011;10111;50.814;4.572;2022-08-07T16:01:48;0.87;;;0.87;;
19897;SDS011;10111;50.814;4.572;2022-08-07T16:04:16;1.13;;;0.90;;
19897;SDS011;10111;50.814;4.572;2022-08-07T16:12:15;1.33;;;0.90;;
19897;SDS011;10111;50.814;4.572;2022-08-07T16:25:27;3.50;;;1.73;;
19897;SDS011;10111;50.814;4.572;2022-08-07T16:33:51;1.63;;;0.87;;
19897;SDS011;10111;50.814;4.572;2022-08-07T16:36:25;0.90;;;0.90;;
19897;SDS011;10111;50.814;4.572;2022-08-07T16:39:24;0.83;;;0.83;;
19897;SDS011;10111;50.814;4.572;2022-08-07T16:48:03;1.20;;;1.00;;
19897;SDS011;10111;50.814;4.572;2022-08-07T16:51:11;1.33;;;1.10;;
19897;SDS011;10111;50.814;4.572;2022-08-07T17:04:39;1.10;;;1.00;;
19897;SDS011;10111;50.814;4.572;2022-08-07T17:07:20;1.67;;;1.03;;
19897;SDS011;10111;50.814;4.572;2022-08-07T17:10:05;1.77;;;1.00;;
19897;SDS011;10111;50.814;4.572;2022-08-07T17:12:46;1.57;;;0.90;;
19897;SDS011;10111;50.814;4.572;2022-08-07T17:15:56;1.80;;;0.97;;
19897;SDS011;10111;50.814;4.572;2022-08-07T17:18:27;1.17;;;0.90;;
19897;SDS011;10111;50.814;4.572;2022-08-07T17:21:00;1.63;;;1.13;;
19897;SDS011;10111;50.814;4.572;2022-08-07T17:23:52;2.10;;;1.47;;
19897;SDS011;10111;50.814;4.572;2022-08-07T17:26:25;0.80;;;0.80;;
19897;SDS011;10111;50.814;4.572;2022-08-07T17:34:15;2.53;;;1.07;;
19897;SDS011;10111;50.814;4.572;2022-08-07T17:36:53;1.07;;;1.00;;
19897;SDS011;10111;50.814;4.572;2022-08-07T17:45:06;0.80;;;0.80;;
19897;SDS011;10111;50.814;4.572;2022-08-07T17:47:58;2.13;;;1.20;;
19897;SDS011;10111;50.814;4.572;2022-08-07T17:53:36;2.93;;;1.73;;
19897;SDS011;10111;50.814;4.572;2022-08-07T17:56:31;4.97;;;2.00;;
19897;SDS011;10111;50.814;4.572;2022-08-07T17:59:08;1.70;;;1.60;;
19897;SDS011;10111;50.814;4.572;2022-08-07T18:01:45;2.13;;;1.67;;
19897;SDS011;10111;50.814;4.572;2022-08-07T18:09:31;2.47;;;1.80;;
19897;SDS011;10111;50.814;4.572;2022-08-07T18:12:16;2.83;;;1.70;;
19897;SDS011;10111;50.814;4.572;2022-08-07T18:17:48;2.67;;;1.63;;
19897;SDS011;10111;50.814;4.572;2022-08-07T18:20:23;3.00;;;1.70;;
19897;SDS011;10111;50.814;4.572;2022-08-07T18:23:03;3.37;;;2.40;;
19897;SDS011;10111;50.814;4.572;2022-08-07T18:25:34;2.83;;;1.83;;
19897;SDS011;10111;50.814;4.572;2022-08-07T18:28:08;2.40;;;1.40;;
19897;SDS011;10111;50.814;4.572;2022-08-07T18:35:50;1.50;;;1.40;;
19897;SDS011;10111;50.814;4.572;2022-08-07T18:41:31;3.77;;;1.50;;
19897;SDS011;10111;50.814;4.572;2022-08-07T18:50:07;2.13;;;1.93;;
19897;SDS011;10111;50.814;4.572;2022-08-07T19:01:54;2.00;;;1.80;;
19897;SDS011;10111;50.814;4.572;2022-08-07T19:07:34;1.70;;;1.40;;
19897;SDS011;10111;50.814;4.572;2022-08-07T19:10:11;6.67;;;1.60;;
19897;SDS011;10111;50.814;4.572;2022-08-07T19:26:11;2.50;;;1.57;;
19897;SDS011;10111;50.814;4.572;2022-08-07T19:28:39;3.03;;;2.00;;